Latest Weather Observations for Jacup

IDW60801

Issued at 11:35 am WST Friday 22 August 2014 (issued every 30 minutes, with the page automatically refreshed every 10 minutes)

About weather observations | Map of weather stations | Latest weather observations for WA | Other Formats
Station Details ID: 010905 Name: JACUP Lat: -33.89 Lon: 119.11 Height: 305.0 m
Data from the previous 72 hours. | See also: Recent months at Jacup
Date/Time
WST
Temp
°C
App
Temp
°C
Dew
Point
Rel
Hum
%
Delta-T
°C
Wind Press
QNH
hPa
Press
MSL
hPa
Rain
since 9 am
mm
Dir
 
Spd
km/h
Gust
km/h
Spd
kts
Gust
kts
22/11:30am 15.4 10.4 4.8 49 5.0 SW 20 30 11 16 1021.2 1021.3 0.0
22/11:00am 15.3 10.1 5.5 52 4.7 SW 22 33 12 18 1021.3 1021.4 0.0
22/10:30am 13.9 9.0 5.0 55 4.2 WSW 20 32 11 17 1021.4 1021.5 0.0
22/10:00am 13.4 8.7 6.0 61 3.6 W 20 32 11 17 1021.0 1021.1 0.0
22/09:30am 13.1 8.2 7.1 67 2.9 W 22 32 12 17 1020.6 1020.7 0.0
22/09:00am 11.9 7.6 7.2 73 2.3 W 19 32 10 17 1020.4 1020.5 1.2
22/08:30am 11.2 6.5 7.7 79 1.7 W 22 30 12 16 1020.1 1020.2 1.2
22/08:00am 10.5 6.7 7.7 83 1.4 W 17 30 9 16 1019.5 1019.6 1.2
22/07:30am 9.2 5.8 7.5 89 0.8 W 15 22 8 12 1018.8 1018.9 1.2
22/07:00am 8.3 4.8 7.2 93 0.5 W 15 20 8 11 1018.1 1018.2 1.2
22/06:30am 8.6 5.1 7.4 92 0.6 W 15 22 8 12 1017.5 1017.5 1.2
22/06:00am 8.7 5.7 7.5 92 0.6 W 13 20 7 11 1016.9 1017.0 1.2
22/05:30am 9.0 5.3 7.8 92 0.6 W 17 24 9 13 1016.2 1016.3 1.2
22/05:00am 9.1 5.4 8.0 93 0.5 WNW 17 22 9 12 1015.7 1015.8 1.2
22/04:30am 9.4 5.8 8.3 93 0.5 WNW 17 26 9 14 1015.2 1015.2 1.2
22/04:00am 9.6 6.0 8.5 93 0.5 WNW 17 26 9 14 1014.7 1014.7 1.2
22/03:30am 10.0 6.2 9.1 94 0.5 WNW 19 28 10 15 1014.3 1014.3 1.2
22/03:00am 10.2 6.4 9.1 93 0.6 WNW 19 30 10 16 1014.1 1014.1 1.2
22/02:30am 10.3 7.3 9.4 94 0.5 WNW 15 22 8 12 1013.8 1013.9 1.2
22/02:00am 10.6 6.9 9.4 92 0.6 WNW 19 28 10 15 1013.7 1013.8 1.2
22/01:30am 11.0 7.2 9.8 92 0.6 WNW 20 32 11 17 1013.3 1013.4 1.2
22/01:00am 11.1 7.9 10.0 93 0.6 NW 17 26 9 14 1013.3 1013.4 1.0
22/12:30am 10.9 7.7 9.8 93 0.6 NW 17 22 9 12 1013.2 1013.3 1.0
22/12:00am 11.0 8.6 9.9 93 0.6 NW 13 17 7 9 1013.1 1013.2 1.0
 
Date/Time
WST
Temp
°C
App
Temp
°C
Dew
Point
Rel
Hum
%
Delta-T
°C
Wind Press
QNH
hPa
Press
MSL
hPa
Rain
since 9 am
mm
Dir
 
Spd
km/h
Gust
km/h
Spd
kts
Gust
kts
21/11:30pm 11.4 8.6 10.1 92 0.7 NW 15 20 8 11 1013.1 1013.2 1.0
21/11:00pm 11.8 9.1 10.4 91 0.7 NNW 15 24 8 13 1013.1 1013.2 1.0
21/10:30pm 12.5 9.5 10.6 88 1.0 NW 17 24 9 13 1013.2 1013.3 1.0
21/10:00pm 12.9 9.5 10.4 85 1.3 NNW 19 32 10 17 1013.3 1013.4 1.0
21/09:30pm 12.6 9.9 10.5 87 1.1 NNW 15 20 8 11 1013.2 1013.3 1.0
21/09:00pm 12.7 10.4 10.4 86 1.2 NNW 13 17 7 9 1012.9 1013.0 1.0
21/08:30pm 12.8 10.5 10.3 85 1.3 NNW 13 17 7 9 1012.9 1013.0 1.0
21/08:00pm 12.4 10.4 10.3 87 1.1 NW 11 15 6 8 1013.0 1013.1 1.0
21/07:30pm 12.4 10.8 10.3 87 1.1 NNW 9 15 5 8 1012.8 1012.9 1.0
21/07:00pm 12.4 11.3 10.6 89 0.9 NW 7 9 4 5 1012.7 1012.8 1.0
21/06:30pm 12.6 10.4 10.8 89 1.0 WNW 13 20 7 11 1012.5 1012.6 1.0
21/06:00pm 12.9 9.9 10.8 87 1.1 W 17 26 9 14 1012.2 1012.2 1.0
21/05:30pm 14.0 9.4 12.4 90 0.9 W 28 43 15 23 1011.7 1011.7 1.0
21/05:00pm 17.1 14.2 9.5 61 4.0 WNW 15 26 8 14 1010.4 1010.5 1.0
21/04:30pm 18.5 14.9 9.8 57 4.7 WNW 19 28 10 15 1009.8 1009.9 1.0
21/04:00pm 18.8 14.9 9.3 54 5.1 WNW 20 33 11 18 1009.6 1009.6 1.0
21/03:30pm 19.3 15.3 10.3 56 4.9 WNW 22 35 12 19 1009.4 1009.4 1.0
21/03:00pm 19.8 14.8 9.7 52 5.5 WNW 26 39 14 21 1009.2 1009.2 1.0
21/02:30pm 19.6 15.1 10.0 54 5.2 WNW 24 39 13 21 1008.9 1008.9 1.0
21/02:21pm 19.5 14.2 10.0 54 5.2 WNW 28 48 15 26 1008.9 1008.9 1.0
21/02:00pm 19.3 13.7 10.0 55 5.1 W 30 43 16 23 1009.0 1009.0 1.0
21/01:30pm 18.4 14.3 11.5 64 3.8 WNW 24 39 13 21 1008.9 1008.9 1.0
21/01:00pm 17.8 14.3 13.5 76 2.5 WNW 24 39 13 21 1008.7 1008.7 1.0
21/12:30pm 16.8 14.6 15.0 89 1.1 WNW 20 33 11 18 1008.9 1008.9 1.0
21/12:00pm 15.6 12.5 13.4 87 1.2 NW 22 35 12 19 1009.3 1009.3 0.8
21/11:30am 15.9 12.0 13.2 84 1.5 NW 26 41 14 22 1009.3 1009.3 0.8
21/11:00am 15.3 10.9 13.0 86 1.3 NW 28 46 15 25 1009.5 1009.5 0.8
21/10:45am 15.0 10.5 12.7 86 1.3 NNW 28 46 15 25 1009.6 1009.6 0.8
21/10:30am 14.8 10.7 12.8 88 1.1 NNW 26 43 14 23 1009.4 1009.4 0.8
21/10:05am 13.6 8.2 12.3 92 0.7 NNW 32 50 17 27 1009.0 1009.0 0.8
21/10:00am 13.4 7.8 12.0 91 0.8 NNW 33 48 18 26 1009.0 1009.0 0.8
21/09:32am 12.9 7.3 11.5 91 0.8 NNW 32 52 17 28 1009.3 1009.3 0.6
21/09:30am 12.9 7.3 11.6 92 0.7 NNW 32 48 17 26 1009.4 1009.4 0.6
21/09:00am 12.9 7.6 11.3 90 0.9 NNW 30 44 16 24 1009.5 1009.5 0.6
21/08:30am 12.9 7.8 10.6 86 1.2 NNW 28 39 15 21 1009.9 1010.0 0.2
21/08:00am 12.8 8.0 10.3 85 1.3 N 26 39 14 21 1009.0 1009.0 0.0
21/07:30am 11.9 7.4 10.0 88 1.0 N 24 37 13 20 1009.0 1009.0 0.0
21/07:00am 11.2 7.0 9.6 90 0.8 N 22 33 12 18 1009.0 1009.0 0.0
21/06:30am 10.8 6.9 9.6 92 0.6 N 20 28 11 15 1009.5 1009.5 0.0
21/06:00am 10.4 6.7 9.3 93 0.6 N 19 28 10 15 1009.4 1009.4 0.0
21/05:30am 10.7 6.8 9.5 92 0.6 N 20 30 11 16 1009.4 1009.4 0.0
21/05:00am 10.5 6.8 9.4 93 0.6 N 19 28 10 15 1009.7 1009.8 0.0
21/04:30am 10.5 6.8 9.6 94 0.5 N 19 26 10 14 1010.0 1010.1 0.0
21/04:00am 10.4 6.7 9.5 94 0.5 N 19 28 10 15 1009.9 1010.0 0.0
21/03:30am 10.2 6.9 9.4 95 0.4 N 17 26 9 14 1010.1 1010.2 0.0
21/03:00am 9.8 6.4 9.0 95 0.4 N 17 20 9 11 1010.4 1010.5 0.0
21/02:30am 10.0 7.0 9.2 95 0.4 N 15 20 8 11 1010.9 1010.9 0.0
21/02:00am 10.4 7.8 9.3 93 0.6 N 13 19 7 10 1011.4 1011.4 0.0
21/01:30am 11.1 8.3 10.0 93 0.6 N 15 20 8 11 1011.7 1011.7 0.0
21/01:00am 10.9 8.0 9.8 93 0.6 N 15 19 8 10 1011.9 1011.9 0.0
21/12:30am 11.7 9.0 10.3 91 0.7 NNW 15 22 8 12 1012.3 1012.3 0.0
21/12:00am 12.7 10.1 10.6 87 1.1 NNW 15 24 8 13 1012.6 1012.7 0.0
 
Date/Time
WST
Temp
°C
App
Temp
°C
Dew
Point
Rel
Hum
%
Delta-T
°C
Wind Press
QNH
hPa
Press
MSL
hPa
Rain
since 9 am
mm
Dir
 
Spd
km/h
Gust
km/h
Spd
kts
Gust
kts
20/11:30pm 13.7 10.4 11.0 84 1.4 NNW 19 28 10 15 1012.9 1013.0 0.0
20/11:00pm 13.4 10.4 10.6 83 1.5 NNW 17 26 9 14 1013.4 1013.5 0.0
20/10:30pm 13.2 10.2 10.6 84 1.4 NNW 17 26 9 14 1013.7 1013.8 0.0
20/10:00pm 12.1 9.6 9.8 86 1.2 N 13 15 7 8 1014.2 1014.2 0.0
20/09:30pm 13.1 10.6 9.7 80 1.8 NNW 13 19 7 10 1014.3 1014.3 0.0
20/09:00pm 12.5 10.3 9.5 82 1.5 N 11 13 6 7 1014.3 1014.3 0.0
20/08:30pm 13.2 11.1 9.6 79 1.9 NNW 11 13 6 7 1014.5 1014.5 0.0
20/08:00pm 12.8 10.2 9.3 79 1.8 NNW 13 20 7 11 1014.5 1014.5 0.0
20/07:30pm 12.2 9.9 8.9 80 1.7 N 11 15 6 8 1014.3 1014.3 0.0
20/07:00pm 12.3 9.5 8.6 78 1.9 N 13 17 7 9 1014.2 1014.2 0.0
20/06:30pm 12.7 10.3 8.6 76 2.1 N 11 15 6 8 1014.1 1014.1 0.0
20/06:00pm 13.7 11.5 9.2 74 2.3 N 11 15 6 8 1013.9 1014.0 0.0
20/05:30pm 13.8 11.9 9.0 73 2.5 NNW 9 13 5 7 1013.6 1013.7 0.0
20/05:00pm 15.6 13.8 9.3 66 3.3 N 9 13 5 7 1013.3 1013.4 0.0
20/04:30pm 17.0 15.5 10.6 66 3.5 NW 9 15 5 8 1013.7 1013.8 0.0
20/04:00pm 16.4 13.9 9.8 65 3.5 WNW 13 19 7 10 1013.8 1013.9 0.0
20/03:30pm 17.3 14.8 9.7 61 4.1 WNW 13 19 7 10 1013.6 1013.7 0.0
20/03:00pm 18.2 15.4 11.3 64 3.8 WNW 17 24 9 13 1013.7 1013.8 0.0
20/02:30pm 16.7 13.6 10.3 66 3.4 WNW 17 30 9 16 1013.8 1013.9 0.0
20/02:00pm 18.5 16.0 9.6 56 4.8 NW 13 19 7 10 1013.5 1013.6 0.0
20/01:30pm 18.3 14.6 9.6 57 4.7 NW 19 26 10 14 1013.7 1013.8 0.0
20/01:00pm 17.5 14.8 10.4 63 3.8 WNW 15 26 8 14 1013.9 1014.0 0.0
20/12:30pm 18.1 16.1 11.4 65 3.7 NW 13 19 7 10 1014.2 1014.2 0.0
20/12:00pm 18.0 15.3 11.6 66 3.6 NW 17 28 9 15 1014.8 1014.8 0.0
20/11:30am 16.9 14.7 12.0 73 2.7 NNW 15 20 8 11 1015.3 1015.4 0.0
20/11:00am 15.6 13.0 12.0 79 2.0 NNW 17 24 9 13 1015.6 1015.7 0.0
20/10:30am 14.9 12.4 12.2 84 1.5 NNW 17 26 9 14 1015.8 1015.9 0.0
20/10:00am 13.1 11.1 11.5 90 0.9 NNW 13 19 7 10 1015.9 1016.0 0.0
20/09:30am 12.9 11.3 11.6 92 0.7 NNW 11 19 6 10 1015.9 1016.0 0.0
20/09:00am 11.2 9.2 10.1 93 0.6 N 11 15 6 8 1016.2 1016.3 0.2
20/08:30am 9.0 6.5 8.2 95 0.4 N 11 17 6 9 1016.0 - 0.2
20/08:00am 7.6 4.5 7.2 97 0.2 N 13 17 7 9 1015.9 1016.0 0.2
20/07:30am 7.1 3.9 6.8 98 0.1 N 13 17 7 9 1015.8 - 0.2
20/07:00am 5.8 2.3 5.4 97 0.2 N 13 15 7 8 1015.6 1015.7 0.2
20/06:30am 5.8 2.7 5.4 97 0.2 N 11 13 6 7 1015.3 - 0.2
20/06:00am 6.2 3.1 5.6 96 0.3 N 11 13 6 7 1014.9 1014.9 0.2
20/05:30am 7.5 4.7 7.1 97 0.2 NNW 11 15 6 8 1014.9 - 0.2
20/05:00am 7.0 4.1 6.6 97 0.2 N 11 13 6 7 1015.0 1015.0 0.2
20/04:30am 6.6 3.6 6.2 97 0.2 N 11 15 6 8 1015.0 - 0.2
20/04:00am 7.5 5.1 7.1 97 0.2 N 9 13 5 7 1015.1 1015.1 0.2
20/03:30am 7.2 4.8 6.8 97 0.2 N 9 11 5 6 1015.1 - 0.2
20/03:00am 6.9 4.0 6.5 97 0.2 N 11 13 6 7 1015.2 1015.2 0.0
20/02:30am 7.2 4.0 6.8 97 0.2 N 13 15 7 8 1015.5 - 0.0
20/02:00am 7.9 5.2 7.5 97 0.2 N 11 13 6 7 1015.8 1015.9 0.0
20/01:30am 8.2 6.0 7.9 98 0.1 N 9 13 5 7 1015.9 - 0.0
20/01:00am 8.5 6.0 8.2 98 0.1 N 11 13 6 7 1016.1 1016.2 0.0
20/12:30am 8.0 5.7 7.6 97 0.2 N 9 11 5 6 1016.2 - 0.0
20/12:00am 9.1 6.7 8.6 97 0.2 N 11 13 6 7 1016.3 1016.4 0.0
 
Date/Time
WST
Temp
°C
App
Temp
°C
Dew
Point
Rel
Hum
%
Delta-T
°C
Wind Press
QNH
hPa
Press
MSL
hPa
Rain
since 9 am
mm
Dir
 
Spd
km/h
Gust
km/h
Spd
kts
Gust
kts
19/11:30pm 8.3 6.1 7.9 97 0.2 N 9 11 5 6 1016.1 - 0.0
19/11:00pm 7.9 5.9 7.1 95 0.4 N 7 11 4 6 1016.3 1016.4 0.0
19/10:30pm 8.8 6.3 8.2 96 0.3 N 11 13 6 7 1016.3 - 0.0
19/10:00pm 8.8 6.6 8.0 95 0.4 NNE 9 9 5 5 1016.4 1016.5 0.0
19/09:30pm 9.8 7.5 9.0 95 0.4 NE 11 13 6 7 1016.7 - 0.0
19/09:00pm 10.3 8.6 9.7 96 0.3 ENE 9 15 5 8 1016.7 1016.8 0.0
19/08:30pm 10.0 8.1 9.2 95 0.4 ENE 9 13 5 7 1016.9 - 0.0
19/08:00pm 10.2 8.4 9.3 94 0.5 E 9 13 5 7 1016.6 1016.7 0.0
19/07:30pm 10.5 8.7 9.4 93 0.6 E 9 11 5 6 1016.5 - 0.0
19/07:00pm 11.3 9.2 9.9 91 0.7 E 11 15 6 8 1016.3 1016.4 0.0
19/06:30pm 12.2 10.3 10.4 89 0.9 E 11 13 6 7 1016.1 - 0.0
19/06:00pm 12.9 12.0 10.6 86 1.2 ESE 6 11 3 6 1015.7 1015.8 0.0
19/05:30pm 13.6 13.8 10.6 82 1.6 CALM 0 0 0 0 1015.3 - 0.0
19/05:00pm 14.9 13.8 10.7 76 2.3 ESE 7 11 4 6 1015.0 1015.0 0.0
19/04:30pm 15.4 13.9 10.6 73 2.6 ESE 9 13 5 7 1014.8 - 0.0
19/04:00pm 16.3 14.8 9.3 63 3.7 SSE 7 9 4 5 1014.8 1014.8 0.0
19/03:30pm 16.3 15.9 8.3 59 4.1 CALM 0 0 0 0 1014.5 - 0.0
19/03:00pm 16.6 14.3 9.1 61 3.9 E 11 17 6 9 1014.4 1014.4 0.0
19/02:30pm 17.5 17.5 9.7 60 4.2 CALM 0 0 0 0 1014.3 - 0.0
19/02:00pm 16.2 16.0 9.2 63 3.7 CALM 0 0 0 0 1014.4 1014.4 0.0
19/01:30pm 15.9 14.8 10.7 71 2.8 E 7 11 4 6 1014.3 - 0.0
19/01:00pm 17.2 16.1 10.8 66 3.5 N 7 11 4 6 1014.5 1014.5 0.0
19/12:30pm 15.7 14.9 9.6 67 3.2 S 4 9 2 5 1014.5 - 0.0
19/12:00pm 14.7 13.7 10.3 75 2.3 SW 6 11 3 6 1015.0 1015.0 0.0

Other Formats:

Comma delimited format used in spreadsheet applications
http://www.bom.gov.au/fwo/IDW60801/IDW60801.95636.axf

JavaScript Object Notation format (JSON) in row-major order
http://www.bom.gov.au/fwo/IDW60801/IDW60801.95636.json